Terminal Aerodrome Forecast
Issued by NWS

Home | Current Version | Previous Version | Text Only | Print | Product List | Glossary On
Versions: 1 2 3 4 5 6 7 8 9 10 11 12 13 14 15 16 17 18
903
FTUS46 KSTO 232333
TAFSCK
TAF
KSCK 232333Z 2400/2424 30005KT P6SM BKN150
     FM240900 VRB04KT 4SM BR BKN150
     FM241000 31005KT 2SM BR OVC005
     FM241600 31004KT 1/4SM FG VV005
     FM241800 31006KT 4SM BR SCT250
     FM242100 32006KT P6SM SCT250=

USA.gov is the U.S. government's official web portal to all federal, state and local government web resources and services.